createdAt,value
2022-12-18T00:01:06.819Z,102701.56
2022-12-18T00:03:35.137Z,102697.63
2022-12-18T00:06:03.772Z,102695.69
2022-12-18T00:08:31.508Z,102697.94
2022-12-18T00:11:07.050Z,102685.28
2022-12-18T00:13:35.799Z,102671.41
2022-12-18T00:16:06.254Z,102687.81
2022-12-18T00:18:34.204Z,102691.41
2022-12-18T00:21:02.714Z,102696.50
2022-12-18T00:23:30.954Z,102693.06
2022-12-18T00:26:01.168Z,102691.09
2022-12-18T00:28:29.154Z,102694.81
2022-12-18T00:31:02.609Z,102684.88
2022-12-18T00:33:31.938Z,102693.56
2022-12-18T00:36:03.020Z,102651.09
2022-12-18T00:38:30.758Z,102693.47
2022-12-18T00:40:58.401Z,102680.66
2022-12-18T00:43:25.225Z,102668.22
2022-12-18T00:45:52.985Z,102689.19
2022-12-18T00:48:20.898Z,102691.25
2022-12-18T00:50:51.406Z,102697.00
2022-12-18T00:53:19.351Z,102698.19
2022-12-18T00:55:47.954Z,102696.88
2022-12-18T00:58:18.257Z,102690.09
2022-12-18T01:00:46.011Z,102684.91
2022-12-18T01:03:16.007Z,102690.22
2022-12-18T01:05:44.434Z,102688.47
2022-12-18T01:08:13.534Z,102683.75
2022-12-18T01:10:42.798Z,102671.06
2022-12-18T01:13:10.423Z,102691.41
2022-12-18T01:15:38.081Z,102687.44
2022-12-18T01:18:05.712Z,102687.41
2022-12-18T01:20:33.425Z,102689.22
2022-12-18T01:23:01.075Z,102695.06
2022-12-18T01:25:30.206Z,102690.34
2022-12-18T01:27:57.947Z,102693.75
2022-12-18T01:30:25.726Z,102694.78
2022-12-18T01:32:53.307Z,102693.72
2022-12-18T01:35:21.074Z,102695.28
2022-12-18T01:37:48.688Z,102702.63
2022-12-18T01:40:16.333Z,102702.09
2022-12-18T01:42:45.347Z,102698.94
2022-12-18T01:45:34.404Z,102687.72
2022-12-18T01:48:05.272Z,102688.16
2022-12-18T01:50:36.440Z,102699.44
2022-12-18T01:53:07.634Z,102711.34
2022-12-18T01:55:40.774Z,102716.94
2022-12-18T01:58:09.864Z,102725.88
2022-12-18T02:00:37.584Z,102733.91
2022-12-18T02:03:05.210Z,102722.25
2022-12-18T02:05:46.134Z,102725.50
2022-12-18T02:08:20.044Z,102733.69
2022-12-18T02:10:55.207Z,102737.91
2022-12-18T02:13:34.296Z,102738.63
2022-12-18T02:16:10.171Z,102752.44
2022-12-18T02:18:40.301Z,102752.22
2022-12-18T02:21:15.101Z,102760.84
2022-12-18T02:23:50.189Z,102752.91
2022-12-18T02:26:24.084Z,102748.34
2022-12-18T02:28:55.907Z,102755.22
2022-12-18T02:31:28.683Z,102738.28
2022-12-18T02:34:00.416Z,102737.03
2022-12-18T02:36:31.004Z,102736.94
2022-12-18T02:38:59.932Z,102739.78
2022-12-18T02:41:29.461Z,102741.88
2022-12-18T02:44:00.316Z,102686.25
2022-12-18T02:46:33.091Z,102709.41
2022-12-18T02:49:11.011Z,102717.00
2022-12-18T02:51:49.074Z,102718.34
2022-12-18T02:54:27.274Z,102704.47
2022-12-18T02:56:59.869Z,102703.63
2022-12-18T02:59:36.188Z,102697.09
2022-12-18T03:02:09.519Z,102703.47
2022-12-18T03:04:44.643Z,102696.28
2022-12-18T03:07:20.422Z,102697.25
2022-12-18T03:09:52.101Z,102701.94
2022-12-18T03:12:25.742Z,102644.72
2022-12-18T03:15:00.108Z,102692.03
2022-12-18T03:17:29.735Z,102683.47
2022-12-18T03:20:01.916Z,102681.63
2022-12-18T03:22:33.987Z,102675.00
2022-12-18T03:25:04.889Z,102662.59
2022-12-18T03:27:38.134Z,102668.47
2022-12-18T03:30:09.211Z,102660.63
2022-12-18T03:32:43.484Z,102661.66
2022-12-18T03:35:15.384Z,102653.13
2022-12-18T03:37:43.111Z,102664.06
2022-12-18T03:40:11.689Z,102659.97
2022-12-18T03:42:48.781Z,102652.78
2022-12-18T03:45:22.728Z,102653.50
2022-12-18T03:48:00.338Z,102654.44
2022-12-18T03:50:38.074Z,102651.13
2022-12-18T03:53:19.201Z,102657.13
2022-12-18T03:55:47.761Z,102650.56
2022-12-18T03:58:21.259Z,102652.41
2022-12-18T04:00:52.274Z,102647.34
2022-12-18T04:03:26.155Z,102642.84
2022-12-18T04:05:56.186Z,102645.38
2022-12-18T04:08:24.930Z,102636.00
2022-12-18T04:10:52.629Z,102627.50
2022-12-18T04:13:25.882Z,102620.75
2022-12-18T04:15:53.955Z,102616.63
2022-12-18T04:18:21.617Z,102625.19
2022-12-18T04:20:49.347Z,102618.34
2022-12-18T04:23:16.965Z,102614.25
2022-12-18T04:25:44.672Z,102625.28
2022-12-18T04:28:12.327Z,102623.66
2022-12-18T04:30:41.422Z,102631.41
2022-12-18T04:33:10.966Z,102633.25
2022-12-18T04:35:38.573Z,102635.66
2022-12-18T04:38:07.454Z,102642.72
2022-12-18T04:40:34.917Z,102643.63
2022-12-18T04:43:02.597Z,102646.25
2022-12-18T04:45:30.464Z,102657.50
2022-12-18T04:48:00.465Z,102655.06
2022-12-18T04:50:28.303Z,102651.75
2022-12-18T04:52:56.004Z,102636.78
2022-12-18T04:55:26.833Z,102649.25
2022-12-18T04:57:54.646Z,102676.97
2022-12-18T05:00:22.935Z,102677.03
2022-12-18T05:02:50.674Z,102682.97
2022-12-18T05:05:20.134Z,102667.72
2022-12-18T05:07:47.796Z,102682.84
2022-12-18T05:10:15.461Z,102670.47
2022-12-18T05:12:57.051Z,102685.47
2022-12-18T05:15:24.707Z,102692.19
2022-12-18T05:17:52.344Z,102694.72
2022-12-18T05:20:21.431Z,102699.91
2022-12-18T05:22:49.224Z,102699.06
2022-12-18T05:25:16.999Z,102710.16
2022-12-18T05:27:44.617Z,102716.16
2022-12-18T05:30:13.228Z,102718.72
2022-12-18T05:32:41.624Z,102716.84
2022-12-18T05:35:11.506Z,102716.88
2022-12-18T05:37:43.141Z,102709.41
2022-12-18T05:40:12.927Z,102696.91
2022-12-18T05:42:40.774Z,102684.19
2022-12-18T05:45:09.447Z,102683.34
2022-12-18T05:47:37.043Z,102688.44
2022-12-18T05:50:05.230Z,102685.09
2022-12-18T05:52:32.859Z,102685.94
2022-12-18T05:55:01.809Z,102677.53
2022-12-18T05:57:29.507Z,102664.78
2022-12-18T05:59:57.101Z,102663.84
2022-12-18T06:02:24.853Z,102675.75
2022-12-18T06:04:52.651Z,102666.53
2022-12-18T06:07:20.247Z,102675.81
2022-12-18T06:09:47.934Z,102662.28
2022-12-18T06:12:16.879Z,102660.66
2022-12-18T06:14:44.475Z,102654.88
2022-12-18T06:17:12.059Z,102662.50
2022-12-18T06:19:39.850Z,102652.44
2022-12-18T06:22:07.444Z,102659.22
2022-12-18T06:24:35.179Z,102666.81
2022-12-18T06:27:03.312Z,102658.28
2022-12-18T06:29:32.321Z,102655.69
2022-12-18T06:31:59.946Z,102648.19
2022-12-18T06:34:27.891Z,102645.56
2022-12-18T06:36:55.551Z,102643.00
2022-12-18T06:39:23.140Z,102636.16
2022-12-18T06:41:50.721Z,102630.28
2022-12-18T06:44:18.426Z,102627.78
2022-12-18T06:46:47.543Z,102621.00
2022-12-18T06:49:15.228Z,102615.91
2022-12-18T06:51:43.491Z,102607.53
2022-12-18T06:54:11.138Z,102616.09
2022-12-18T06:56:38.754Z,102613.50
2022-12-18T06:59:06.333Z,102603.41
2022-12-18T07:01:34.058Z,102598.31
2022-12-18T07:04:03.172Z,102596.63
2022-12-18T07:06:30.788Z,102601.66
2022-12-18T07:08:58.491Z,102584.78
2022-12-18T07:11:26.519Z,102593.94
2022-12-18T07:13:55.340Z,102596.53
2022-12-18T07:16:25.499Z,102593.78
2022-12-18T07:18:53.609Z,102593.94
2022-12-18T07:21:24.112Z,102591.28
2022-12-18T07:23:51.853Z,102594.66
2022-12-18T07:26:22.279Z,102593.00
2022-12-18T07:28:50.293Z,102586.31
2022-12-18T07:31:19.952Z,102586.31
2022-12-18T07:33:49.901Z,102572.69
2022-12-18T07:36:17.864Z,102559.22
2022-12-18T07:38:48.877Z,102572.63
2022-12-18T07:41:16.592Z,102572.56
2022-12-18T07:43:44.536Z,102565.81
2022-12-18T07:46:14.769Z,102535.47
2022-12-18T07:48:42.934Z,102549.72
2022-12-18T07:51:15.257Z,102541.22
2022-12-18T07:53:43.944Z,102548.69
2022-12-18T07:56:31.168Z,102530.25
2022-12-18T07:58:59.975Z,102540.97
2022-12-18T08:01:28.168Z,102540.88
2022-12-18T08:03:56.299Z,102526.50
2022-12-18T08:06:24.762Z,102534.13
2022-12-18T08:08:53.609Z,102521.41
2022-12-18T08:11:22.763Z,102525.41
2022-12-18T08:13:50.385Z,102522.06
2022-12-18T08:16:19.112Z,102531.19
2022-12-18T08:18:47.952Z,102542.19
2022-12-18T08:21:17.823Z,102547.78
2022-12-18T08:23:45.938Z,102558.03
2022-12-18T08:26:13.913Z,102554.63
2022-12-18T08:28:43.348Z,102556.22
2022-12-18T08:31:11.382Z,102563.66
2022-12-18T08:33:41.026Z,102554.38
2022-12-18T08:36:11.441Z,102568.66
2022-12-18T08:38:39.175Z,102561.97
2022-12-18T08:41:09.507Z,102554.97
2022-12-18T08:43:54.957Z,102558.53
2022-12-18T08:46:26.074Z,102549.91
2022-12-18T08:48:54.990Z,102541.25
2022-12-18T08:51:22.601Z,102540.25
2022-12-18T08:53:50.386Z,102544.44
2022-12-18T08:56:18.447Z,102528.38
2022-12-18T08:58:46.146Z,102557.88
2022-12-18T09:01:15.022Z,102548.41
2022-12-18T09:03:44.664Z,102543.09
2022-12-18T09:06:16.569Z,102537.06
2022-12-18T09:08:44.630Z,102532.47
2022-12-18T09:11:18.314Z,102534.94
2022-12-18T09:13:45.992Z,102538.94
2022-12-18T09:16:14.240Z,102539.66
2022-12-18T09:18:42.460Z,102526.22
2022-12-18T09:21:13.916Z,102540.03
2022-12-18T09:23:41.812Z,102532.72
2022-12-18T09:26:09.670Z,102533.25
2022-12-18T09:28:37.577Z,102540.19
2022-12-18T09:31:08.660Z,102530.66
2022-12-18T09:33:37.028Z,102523.72
2022-12-18T09:36:08.135Z,102526.44
2022-12-18T09:38:37.829Z,102502.78
2022-12-18T09:41:16.654Z,102519.19
2022-12-18T09:43:49.219Z,102512.94
2022-12-18T09:46:21.507Z,102521.53
2022-12-18T09:48:53.234Z,102493.91
2022-12-18T09:51:30.677Z,102512.09
2022-12-18T09:54:04.814Z,102508.75
2022-12-18T09:56:39.724Z,102496.41
2022-12-18T09:59:07.593Z,102496.41
2022-12-18T10:01:43.241Z,102489.53
2022-12-18T10:04:12.276Z,102479.91
2022-12-18T10:06:48.214Z,102484.00
2022-12-18T10:09:27.223Z,102486.97
2022-12-18T10:12:04.552Z,102486.09
2022-12-18T10:14:42.958Z,102497.75
2022-12-18T10:17:20.718Z,102517.09
2022-12-18T10:19:52.620Z,102522.25
2022-12-18T10:22:30.351Z,102501.16
2022-12-18T10:25:05.559Z,102495.84
2022-12-18T10:27:34.601Z,102477.97
2022-12-18T10:30:03.327Z,102481.91
2022-12-18T10:32:32.723Z,102482.47
2022-12-18T10:35:01.245Z,102490.72
2022-12-18T10:37:31.469Z,102444.25
2022-12-18T10:40:21.789Z,102485.03
2022-12-18T10:43:13.250Z,102472.97
2022-12-18T10:45:41.432Z,102424.22
2022-12-18T10:48:21.082Z,102476.72
2022-12-18T10:53:43.542Z,102464.69
2022-12-18T10:56:12.939Z,102465.34
2022-12-18T10:58:41.701Z,102453.47
2022-12-18T11:01:12.857Z,102438.78
2022-12-18T11:03:42.534Z,102434.03
2022-12-18T11:06:12.674Z,102430.19
2022-12-18T11:08:41.160Z,102421.03
2022-12-18T11:11:22.380Z,102414.47
2022-12-18T11:14:17.873Z,102440.50
2022-12-18T11:17:23.741Z,102431.72
2022-12-18T11:19:40.656Z,102432.06
2022-12-18T11:22:22.270Z,102419.81
2022-12-18T11:25:29.492Z,102399.28
2022-12-18T11:27:50.601Z,102419.63
2022-12-18T11:30:24.597Z,102422.19
2022-12-18T11:32:55.180Z,102415.53
2022-12-18T11:35:30.036Z,102418.09
2022-12-18T11:38:06.621Z,102422.31
2022-12-18T11:40:41.104Z,102414.31
2022-12-18T11:43:15.228Z,102418.25
2022-12-18T11:45:49.411Z,102415.16
2022-12-18T11:48:20.574Z,102413.72
2022-12-18T11:50:52.172Z,102406.63
2022-12-18T11:53:20.700Z,102401.94
2022-12-18T11:56:00.041Z,102394.38
2022-12-18T11:58:46.902Z,102359.84
2022-12-18T12:01:29.466Z,102368.41
2022-12-18T12:04:26.951Z,102361.38
2022-12-18T12:07:05.959Z,102354.19
2022-12-18T12:09:40.727Z,102351.03
2022-12-18T12:12:22.411Z,102323.94
2022-12-18T12:15:03.315Z,102351.97
2022-12-18T12:17:38.368Z,102346.13
2022-12-18T12:20:16.235Z,102342.09
2022-12-18T12:22:51.244Z,102347.69
2022-12-18T12:25:30.702Z,102331.44
2022-12-18T12:28:07.533Z,102347.31
2022-12-18T12:30:47.770Z,102331.31
2022-12-18T12:33:29.447Z,102333.13
2022-12-18T12:36:10.406Z,102328.78
2022-12-18T12:38:49.829Z,102327.13
2022-12-18T12:41:43.206Z,102317.59
2022-12-18T12:44:18.636Z,102314.31
2022-12-18T12:46:49.770Z,102310.78
2022-12-18T12:49:21.369Z,102305.53
2022-12-18T12:51:59.058Z,102295.09
2022-12-18T12:54:28.670Z,102301.13
2022-12-18T12:57:04.265Z,102300.16
2022-12-18T12:59:40.978Z,102298.66
2022-12-18T13:02:20.101Z,102297.78
2022-12-18T13:04:54.390Z,102294.84
2022-12-18T13:07:28.732Z,102294.47
2022-12-18T13:10:27.384Z,102291.47
2022-12-18T13:12:59.977Z,102297.03
2022-12-18T13:15:33.761Z,102297.16
2022-12-18T13:18:21.004Z,102304.72
2022-12-18T13:20:55.294Z,102285.25
2022-12-18T13:23:37.162Z,102290.44
2022-12-18T13:26:38.364Z,102289.56
2022-12-18T13:29:06.977Z,102275.50
2022-12-18T13:32:01.696Z,102270.25
2022-12-18T13:34:32.974Z,102270.38
2022-12-18T13:37:34.493Z,102265.44
2022-12-18T13:40:02.151Z,102257.47
2022-12-18T13:43:00.319Z,102242.22
2022-12-18T13:45:47.474Z,102229.94
2022-12-18T13:48:21.171Z,102226.31
2022-12-18T13:50:55.664Z,102230.53
2022-12-18T13:53:28.063Z,102226.00
2022-12-18T13:55:56.073Z,102223.88
2022-12-18T13:58:24.366Z,102218.75
2022-12-18T14:00:52.363Z,102217.78
2022-12-18T14:03:23.477Z,102220.53
2022-12-18T14:05:58.767Z,102215.63
2022-12-18T14:08:29.490Z,102222.84
2022-12-18T14:10:57.382Z,102226.56
2022-12-18T14:13:29.944Z,102220.53
2022-12-18T14:15:59.528Z,102199.69
2022-12-18T14:18:35.869Z,102209.06
2022-12-18T14:21:06.099Z,102211.00
2022-12-18T14:23:36.642Z,102199.72
2022-12-18T14:26:20.964Z,102198.25
2022-12-18T14:28:48.830Z,102203.50
2022-12-18T14:31:20.509Z,102196.72
2022-12-18T14:33:48.332Z,102190.91
2022-12-18T14:36:21.271Z,102185.66
2022-12-18T14:38:52.713Z,102177.22
2022-12-18T14:41:21.758Z,102181.91
2022-12-18T14:43:51.369Z,102177.81
2022-12-18T14:46:32.124Z,102146.84
2022-12-18T14:49:00.501Z,102168.63
2022-12-18T14:51:31.774Z,102170.47
2022-12-18T14:54:01.325Z,102166.66
2022-12-18T14:56:31.061Z,102164.16
2022-12-18T14:59:00.251Z,102156.34
2022-12-18T15:01:30.985Z,102167.50
2022-12-18T15:04:00.468Z,102165.91
2022-12-18T15:06:33.024Z,102164.09
2022-12-18T15:09:01.294Z,102153.38
2022-12-18T15:11:38.157Z,102155.66
2022-12-18T15:14:26.467Z,102157.25
2022-12-18T15:16:56.079Z,102098.13
2022-12-18T15:19:28.380Z,102158.91
2022-12-18T15:22:00.248Z,102162.25
2022-12-18T15:24:34.519Z,102147.13
2022-12-18T15:27:02.745Z,102151.28
2022-12-18T15:29:30.365Z,102152.63
2022-12-18T15:32:04.300Z,102152.97
2022-12-18T15:34:33.144Z,102147.78
2022-12-18T15:37:02.171Z,102158.03
2022-12-18T15:39:30.309Z,102157.94
2022-12-18T15:42:15.402Z,102162.94
2022-12-18T15:44:43.109Z,102160.31
2022-12-18T15:47:13.853Z,102150.88
2022-12-18T15:49:41.623Z,102137.25
2022-12-18T15:52:15.233Z,102130.16
2022-12-18T15:54:56.838Z,102134.47
2022-12-18T15:57:27.805Z,102122.63
2022-12-18T15:59:59.006Z,102115.00
2022-12-18T16:02:28.745Z,102130.25
2022-12-18T16:04:56.567Z,102111.41
2022-12-18T16:07:28.204Z,102112.22
2022-12-18T16:09:58.894Z,102099.41
2022-12-18T16:12:27.983Z,102098.44
2022-12-18T16:14:55.642Z,102096.84
2022-12-18T16:17:23.314Z,102091.59
2022-12-18T16:19:50.967Z,102077.41
2022-12-18T16:22:23.159Z,102093.19
2022-12-18T16:24:53.649Z,102088.31
2022-12-18T16:27:21.654Z,102082.88
2022-12-18T16:29:49.322Z,102076.00
2022-12-18T16:32:19.315Z,102077.50
2022-12-18T16:34:47.820Z,102063.19
2022-12-18T16:37:16.913Z,102069.63
2022-12-18T16:39:45.108Z,102073.69
2022-12-18T16:42:17.437Z,102071.13
2022-12-18T16:44:46.486Z,102066.97
2022-12-18T16:47:15.346Z,102078.97
2022-12-18T16:49:43.411Z,102070.31
2022-12-18T16:52:11.078Z,102063.44
2022-12-18T16:54:38.741Z,102043.31
2022-12-18T16:57:06.484Z,102050.53
2022-12-18T16:59:35.670Z,102052.13
2022-12-18T17:02:06.879Z,102054.75
2022-12-18T17:04:34.813Z,102042.00
2022-12-18T17:07:02.647Z,102053.56
2022-12-18T17:09:30.332Z,102057.94
2022-12-18T17:11:57.944Z,102055.22
2022-12-18T17:14:26.340Z,102054.16
2022-12-18T17:17:20.338Z,102050.75
2022-12-18T17:19:44.619Z,102057.41
2022-12-18T17:22:12.339Z,102046.47
2022-12-18T17:24:39.925Z,102052.34
2022-12-18T17:27:08.787Z,102037.88
2022-12-18T17:29:36.313Z,102041.13
2022-12-18T17:32:05.873Z,102047.97
2022-12-18T17:34:33.518Z,102038.47
2022-12-18T17:37:01.203Z,102041.06
2022-12-18T17:39:30.651Z,102045.34
2022-12-18T17:41:59.402Z,102045.22
2022-12-18T17:44:27.088Z,102047.53
2022-12-18T17:46:54.740Z,102046.75
2022-12-18T17:49:23.876Z,102046.69
2022-12-18T17:51:51.506Z,102039.91
2022-12-18T17:54:19.233Z,102041.50
2022-12-18T17:56:47.214Z,102047.38
2022-12-18T17:59:15.616Z,102048.06
2022-12-18T18:01:45.180Z,102040.28
2022-12-18T18:04:13.711Z,102028.00
2022-12-18T18:06:42.800Z,102049.53
2022-12-18T18:09:16.889Z,102044.28
2022-12-18T18:11:58.834Z,102042.31
2022-12-18T18:14:27.090Z,102036.44
2022-12-18T18:16:55.802Z,102034.00
2022-12-18T18:19:25.812Z,102028.88
2022-12-18T18:21:54.856Z,102026.09
2022-12-18T18:24:25.753Z,102021.03
2022-12-18T18:26:53.609Z,102031.31
2022-12-18T18:29:23.341Z,102027.69
2022-12-18T18:31:51.593Z,102005.28
2022-12-18T18:34:24.113Z,102024.44
2022-12-18T18:36:51.834Z,102027.50
2022-12-18T18:39:21.053Z,102023.81
2022-12-18T18:41:49.039Z,102020.50
2022-12-18T18:44:17.136Z,102013.69
2022-12-18T18:46:45.109Z,102013.41
2022-12-18T18:49:13.663Z,102016.72
2022-12-18T18:51:41.328Z,102012.72
2022-12-18T18:54:09.621Z,102004.78
2022-12-18T18:57:11.725Z,102003.88
2022-12-18T18:59:31.595Z,102003.72
2022-12-18T19:02:00.681Z,101996.84
2022-12-18T19:04:32.320Z,101999.94
2022-12-18T19:06:59.943Z,102002.66
2022-12-18T19:09:28.724Z,101998.28
2022-12-18T19:12:15.921Z,102005.81
2022-12-18T19:14:43.587Z,101993.97
2022-12-18T19:17:11.354Z,102001.34
2022-12-18T19:19:39.488Z,101998.78
2022-12-18T19:22:07.769Z,101999.38
2022-12-18T19:24:36.503Z,101997.88
2022-12-18T19:27:05.760Z,101976.16
2022-12-18T19:29:33.487Z,101998.63
2022-12-18T19:32:01.599Z,102013.25
2022-12-18T19:34:29.292Z,101996.28
2022-12-18T19:36:59.701Z,101991.16
2022-12-18T19:39:27.851Z,101993.97
2022-12-18T19:41:55.606Z,102003.72
2022-12-18T19:44:24.629Z,101992.81
2022-12-18T19:46:52.443Z,101995.38
2022-12-18T19:49:23.024Z,101973.06
2022-12-18T19:51:50.795Z,101972.31
2022-12-18T19:54:18.737Z,101986.56
2022-12-18T19:56:46.693Z,101981.66
2022-12-18T19:59:15.147Z,101972.44
2022-12-18T20:01:44.328Z,101970.78
2022-12-18T20:04:12.059Z,101954.75
2022-12-18T20:06:49.814Z,101964.91
2022-12-18T20:09:18.313Z,101956.16
2022-12-18T20:11:46.929Z,101963.84
2022-12-18T20:14:19.656Z,101959.56
2022-12-18T20:16:53.449Z,101962.34
2022-12-18T20:19:22.353Z,101939.16
2022-12-18T20:21:50.186Z,101965.00
2022-12-18T20:24:17.857Z,101956.56
2022-12-18T20:26:45.543Z,101959.97
2022-12-18T20:29:13.124Z,101957.41
2022-12-18T20:31:41.448Z,101943.81
2022-12-18T20:34:10.562Z,101944.88
2022-12-18T20:36:38.641Z,101936.69
2022-12-18T20:39:09.927Z,101932.50
2022-12-18T20:41:39.426Z,101922.47
2022-12-18T20:44:17.999Z,101910.56
2022-12-18T20:46:51.828Z,101918.09
2022-12-18T20:49:20.848Z,101912.88
2022-12-18T20:51:51.248Z,101910.31
2022-12-18T20:54:18.876Z,101917.00
2022-12-18T20:56:46.421Z,101910.06
2022-12-18T20:59:14.049Z,101906.84
2022-12-18T21:01:45.173Z,101897.25
2022-12-18T21:04:18.537Z,101886.16
2022-12-18T21:06:52.971Z,101876.78
2022-12-18T21:09:24.013Z,101869.03
2022-12-18T21:12:10.371Z,101843.28
2022-12-18T21:14:42.058Z,101866.38
2022-12-18T21:17:09.683Z,101860.56
2022-12-18T21:19:37.777Z,101867.44
2022-12-18T21:22:07.137Z,101866.22
2022-12-18T21:24:34.831Z,101848.34
2022-12-18T21:27:02.584Z,101849.34
2022-12-18T21:29:30.377Z,101847.53
2022-12-18T21:31:58.386Z,101844.19
2022-12-18T21:34:27.534Z,101852.56
2022-12-18T21:36:57.247Z,101818.97
2022-12-18T21:39:27.041Z,101841.31
2022-12-18T21:42:12.490Z,101847.09
2022-12-18T21:44:41.939Z,101854.00
2022-12-18T21:47:20.851Z,101847.94
2022-12-18T21:49:50.164Z,101826.69
2022-12-18T21:52:17.760Z,101800.84
2022-12-18T21:54:46.685Z,101813.50
2022-12-18T21:57:14.287Z,101818.56
2022-12-18T21:59:44.262Z,101814.34
2022-12-18T22:02:14.743Z,101787.47
2022-12-18T22:04:42.602Z,101797.06
2022-12-18T22:07:11.354Z,101799.34
2022-12-18T22:09:39.446Z,101790.94
2022-12-18T22:12:09.146Z,101783.22
2022-12-18T22:14:36.864Z,101784.78
2022-12-18T22:17:04.494Z,101768.47
2022-12-18T22:19:36.743Z,101770.88
2022-12-18T22:22:08.778Z,101755.47
2022-12-18T22:24:36.397Z,101740.00
2022-12-18T22:27:04.114Z,101735.69
2022-12-18T22:29:50.714Z,101726.09
2022-12-18T22:32:30.647Z,101702.03
2022-12-18T22:35:04.541Z,101713.25
2022-12-18T22:37:33.817Z,101705.47
2022-12-18T22:40:03.052Z,101698.31
2022-12-18T22:42:32.150Z,101696.50
2022-12-18T22:45:01.249Z,101691.28
2022-12-18T22:47:30.471Z,101683.66
2022-12-18T22:49:58.572Z,101697.41
2022-12-18T22:52:26.615Z,101698.16
2022-12-18T22:54:54.582Z,101650.06
2022-12-18T22:57:22.570Z,101673.94
2022-12-18T22:59:50.396Z,101665.78
2022-12-18T23:02:20.124Z,101679.81
2022-12-18T23:04:48.214Z,101671.28
2022-12-18T23:07:15.952Z,101671.41
2022-12-18T23:09:44.848Z,101657.56
2022-12-18T23:12:16.388Z,101664.16
2022-12-18T23:14:44.777Z,101662.50
2022-12-18T23:17:12.409Z,101670.78
2022-12-18T23:19:47.101Z,101671.41
2022-12-18T23:22:16.325Z,101659.50
2022-12-18T23:24:44.138Z,101655.28
2022-12-18T23:27:12.322Z,101648.50
2022-12-18T23:29:40.104Z,101644.19
2022-12-18T23:32:07.944Z,101636.28
2022-12-18T23:34:35.624Z,101614.66
2022-12-18T23:37:04.671Z,101620.06
2022-12-18T23:39:32.402Z,101608.78
2022-12-18T23:42:00.760Z,101589.56
2022-12-18T23:44:28.983Z,101609.19
2022-12-18T23:46:56.983Z,101607.63
2022-12-18T23:49:24.817Z,101598.78
2022-12-18T23:51:54.789Z,101607.31
2022-12-18T23:54:32.762Z,101608.16
2022-12-18T23:57:01.328Z,101615.66
2022-12-18T23:59:29.028Z,101601.75
